createdAt,value
2019-05-01T00:00:16.295Z,89.4
2019-05-01T00:05:13.713Z,89.6
2019-05-01T00:10:13.111Z,88.9
2019-05-01T00:15:13.520Z,89.3
2019-05-01T00:20:14.252Z,89.5
2019-05-01T00:25:13.727Z,89.1
2019-05-01T00:30:14.695Z,89.2
2019-05-01T00:35:14.263Z,89.4
2019-05-01T00:40:13.715Z,89.6
2019-05-01T00:45:13.147Z,89.8
2019-05-01T00:50:13.720Z,89.9
2019-05-01T00:55:13.779Z,89.5
2019-05-01T01:00:13.320Z,89.6
2019-05-01T01:05:13.540Z,91.1
2019-05-01T01:10:14.940Z,91.6
2019-05-01T01:15:13.333Z,91.7
2019-05-01T01:20:13.317Z,91.8
2019-05-01T01:25:13.385Z,91.8
2019-05-01T01:30:14.505Z,91.3
2019-05-01T01:35:19.357Z,90.2
2019-05-01T01:40:15.223Z,90.1
2019-05-01T01:45:14.106Z,90.7
2019-05-01T01:50:13.168Z,91.3
2019-05-01T01:55:14.340Z,90.2
2019-05-01T02:00:14.400Z,90.6
2019-05-01T02:05:13.782Z,90.7
2019-05-01T02:10:15.084Z,90.2
2019-05-01T02:15:13.268Z,90.4
2019-05-01T02:20:13.969Z,90.3
2019-05-01T02:25:13.928Z,90.5
2019-05-01T02:30:14.040Z,91.8
2019-05-01T02:35:12.821Z,91.6
2019-05-01T02:40:14.682Z,92.2
2019-05-01T02:45:16.247Z,92.9
2019-05-01T02:50:13.770Z,93.3
2019-05-01T02:55:13.257Z,93.2
2019-05-01T03:00:14.946Z,91.7
2019-05-01T03:05:12.847Z,92.1
2019-05-01T03:10:13.253Z,91
2019-05-01T03:15:12.903Z,90.2
2019-05-01T03:20:12.945Z,89.4
2019-05-01T03:25:12.959Z,90.6
2019-05-01T03:30:13.087Z,90
2019-05-01T03:35:12.943Z,90.1
2019-05-01T03:40:13.309Z,88.5
2019-05-01T03:45:12.526Z,89.6
2019-05-01T03:50:13.517Z,89.3
2019-05-01T03:55:13.047Z,89.3
2019-05-01T04:00:13.140Z,89.7
2019-05-01T04:05:13.045Z,90
2019-05-01T04:10:13.510Z,89.2
2019-05-01T04:15:14.003Z,88.8
2019-05-01T04:20:13.429Z,88.7
2019-05-01T04:25:13.656Z,88.3
2019-05-01T04:30:12.839Z,88
2019-05-01T04:35:12.706Z,88.9
2019-05-01T04:40:13.316Z,89.6
2019-05-01T04:45:13.583Z,89.7
2019-05-01T04:50:14.692Z,89.4
2019-05-01T04:55:13.272Z,88.5
2019-05-01T05:00:13.222Z,86.2
2019-05-01T05:05:12.777Z,86
2019-05-01T05:10:13.242Z,87.2
2019-05-01T05:15:12.897Z,87.9
2019-05-01T05:20:13.108Z,86.1
2019-05-01T05:25:12.979Z,84.8
2019-05-01T05:30:12.857Z,86.9
2019-05-01T05:35:18.687Z,86.4
2019-05-01T05:40:13.118Z,87.4
2019-05-01T05:45:12.704Z,84.9
2019-05-01T05:50:13.045Z,86
2019-05-01T05:55:12.878Z,85.2
2019-05-01T06:00:13.056Z,83.4
2019-05-01T06:05:12.938Z,84.2
2019-05-01T06:10:13.144Z,81.8
2019-05-01T06:15:12.616Z,81.7
2019-05-01T06:20:13.097Z,80.9
2019-05-01T06:25:21.534Z,81
2019-05-01T06:30:13.321Z,79.4
2019-05-01T06:35:13.388Z,78.8
2019-05-01T06:40:18.826Z,76.1
2019-05-01T06:45:16.783Z,76.3
2019-05-01T06:50:37.147Z,76.8
2019-05-01T06:55:17.431Z,76.3
2019-05-01T07:00:16.148Z,76.7
2019-05-01T07:05:33.520Z,75.2
2019-05-01T07:10:13.024Z,74.2
2019-05-01T07:15:21.831Z,73.3
2019-05-01T07:21:27.680Z,71.3
2019-05-01T07:25:13.431Z,69.9
2019-05-01T07:30:54.962Z,72.2
2019-05-01T07:35:13.668Z,70.8
2019-05-01T07:40:20.767Z,72.8
2019-05-01T07:45:12.676Z,70.9
2019-05-01T07:50:13.491Z,70.7
2019-05-01T07:55:18.190Z,70.3
2019-05-01T08:00:13.023Z,71.6
2019-05-01T08:05:18.094Z,68.4
2019-05-01T08:10:13.046Z,70.1
2019-05-01T08:15:12.712Z,67.7
2019-05-01T08:20:14.952Z,68.5
2019-05-01T08:25:12.386Z,65.4
2019-05-01T08:30:17.505Z,65.6
2019-05-01T08:35:13.509Z,68.4
2019-05-01T08:40:16.026Z,66.8
2019-05-01T08:45:12.739Z,69.4
2019-05-01T08:50:12.577Z,69.3
2019-05-01T08:55:15.761Z,69.9
2019-05-01T09:00:12.426Z,66.8
2019-05-01T09:05:27.758Z,66.3
2019-05-01T09:10:12.575Z,65.2
2019-05-01T09:15:14.583Z,67
2019-05-01T09:20:12.380Z,67.2
2019-05-01T09:25:12.374Z,64.7
2019-05-01T09:30:12.261Z,66.7
2019-05-01T09:35:16.040Z,63.7
2019-05-01T09:40:12.495Z,62.8
2019-05-01T09:45:12.273Z,65.3
2019-05-01T09:50:15.168Z,63.7
2019-05-01T09:55:12.449Z,65
2019-05-01T10:00:12.083Z,65.5
2019-05-01T10:05:12.423Z,65.8
2019-05-01T10:10:12.303Z,64.4
2019-05-01T10:15:12.510Z,65.4
2019-05-01T10:20:12.845Z,65.8
2019-05-01T10:25:12.626Z,63.8
2019-05-01T10:30:12.261Z,66.8
2019-05-01T10:35:14.317Z,64.8
2019-05-01T10:40:12.425Z,64.7
2019-05-01T10:45:12.664Z,64.1
2019-05-01T10:50:12.495Z,63.9
2019-05-01T10:55:12.478Z,62.7
2019-05-01T11:00:12.087Z,62.8
2019-05-01T11:05:13.019Z,61.1
2019-05-01T11:10:12.672Z,62.7
2019-05-01T11:15:12.141Z,61.2
2019-05-01T11:20:12.308Z,58.3
2019-05-01T11:25:12.386Z,58.2
2019-05-01T11:30:12.287Z,60.3
2019-05-01T11:35:12.025Z,59.7
2019-05-01T11:40:12.101Z,60.6
2019-05-01T11:45:11.931Z,59.2
2019-05-01T11:50:12.393Z,61
2019-05-01T11:55:12.004Z,59.2
2019-05-01T12:00:11.899Z,60
2019-05-01T12:05:12.523Z,58.9
2019-05-01T12:10:14.285Z,59.1
2019-05-01T12:15:12.094Z,59.7
2019-05-01T12:20:12.109Z,61.1
2019-05-01T12:25:12.053Z,60.7
2019-05-01T12:30:12.026Z,60.5
2019-05-01T12:35:12.032Z,62.1
2019-05-01T12:40:11.781Z,62.7
2019-05-01T12:45:11.823Z,62.1
2019-05-01T12:50:12.243Z,61.2
2019-05-01T12:55:12.190Z,59
2019-05-01T13:00:11.906Z,59.7
2019-05-01T13:05:11.976Z,59.9
2019-05-01T13:10:11.783Z,59
2019-05-01T13:15:12.189Z,56.7
2019-05-01T13:20:11.865Z,57.1
2019-05-01T13:25:12.045Z,56.6
2019-05-01T13:30:12.223Z,55.8
2019-05-01T13:35:12.008Z,59.6
2019-05-01T13:40:11.836Z,60
2019-05-01T13:45:11.982Z,60.2
2019-05-01T13:50:11.965Z,61.3
2019-05-01T13:55:11.938Z,59.1
2019-05-01T14:00:11.743Z,60.8
2019-05-01T14:05:11.969Z,59
2019-05-01T14:10:11.847Z,60.7
2019-05-01T14:15:11.808Z,61.5
2019-05-01T14:20:11.636Z,61.9
2019-05-01T14:25:11.886Z,62.1
2019-05-01T14:30:11.842Z,60
2019-05-01T14:35:11.549Z,61.4
2019-05-01T14:40:11.724Z,62
2019-05-01T14:45:11.626Z,60.8
2019-05-01T14:50:11.738Z,62.7
2019-05-01T14:55:11.745Z,61.2
2019-05-01T15:00:11.742Z,57.2
2019-05-01T15:05:11.657Z,56.3
2019-05-01T15:10:11.916Z,57
2019-05-01T15:15:11.658Z,57.3
2019-05-01T15:20:11.853Z,59.3
2019-05-01T15:25:11.895Z,58.8
2019-05-01T15:30:11.955Z,58.4
2019-05-01T15:35:11.599Z,59.8
2019-05-01T15:40:11.710Z,58
2019-05-01T15:45:11.622Z,59
2019-05-01T15:50:11.578Z,59.6
2019-05-01T15:55:11.847Z,59.7
2019-05-01T16:00:11.488Z,61
2019-05-01T16:05:11.648Z,61.4
2019-05-01T16:10:11.549Z,63
2019-05-01T16:15:11.968Z,67.1
2019-05-01T16:20:11.674Z,67.3
2019-05-01T16:25:11.476Z,65.7
2019-05-01T16:30:11.802Z,65.8
2019-05-01T16:35:11.442Z,63.4
2019-05-01T16:40:11.688Z,64.9
2019-05-01T16:45:11.880Z,65.2
2019-05-01T16:50:11.569Z,66.5
2019-05-01T16:55:11.585Z,66
2019-05-01T17:00:11.357Z,64.2
2019-05-01T17:05:11.695Z,66
2019-05-01T17:10:11.958Z,67.8
2019-05-01T17:15:11.682Z,68.6
2019-05-01T17:20:11.609Z,67.4
2019-05-01T17:25:11.691Z,68
2019-05-01T17:30:11.848Z,68.8
2019-05-01T17:35:11.798Z,69.2
2019-05-01T17:40:11.726Z,69.7
2019-05-01T17:45:11.518Z,70.7
2019-05-01T17:50:11.447Z,69.3
2019-05-01T17:55:11.391Z,70.8
2019-05-01T18:00:11.773Z,71.3
2019-05-01T18:05:11.502Z,71.1
2019-05-01T18:10:11.320Z,70.4
2019-05-01T18:15:11.756Z,72.1
2019-05-01T18:20:11.780Z,72.6
2019-05-01T18:25:11.542Z,72.9
2019-05-01T18:30:11.409Z,73.7
2019-05-01T18:35:14.196Z,71.7
2019-05-01T18:40:11.530Z,74.2
2019-05-01T18:45:11.204Z,74.7
2019-05-01T18:50:13.539Z,74.5
2019-05-01T18:55:11.668Z,75.3
2019-05-01T19:00:11.267Z,75.5
2019-05-01T19:05:11.329Z,75.7
2019-05-01T19:10:11.380Z,76.3
2019-05-01T19:15:11.248Z,76.4
2019-05-01T19:20:11.622Z,77.5
2019-05-01T19:25:16.363Z,76.5
2019-05-01T19:30:15.033Z,77.8
2019-05-01T19:35:11.322Z,78.4
2019-05-01T19:40:11.245Z,77.7
2019-05-01T19:45:11.575Z,78.2
2019-05-01T19:50:11.686Z,79.1
2019-05-01T19:55:11.079Z,79
2019-05-01T20:00:11.369Z,79
2019-05-01T20:05:11.334Z,78.5
2019-05-01T20:10:11.445Z,78.5
2019-05-01T20:15:11.461Z,79
2019-05-01T20:20:11.473Z,78.4
2019-05-01T20:25:14.618Z,78
2019-05-01T20:30:11.168Z,78.9
2019-05-01T20:35:11.233Z,79.1
2019-05-01T20:40:11.727Z,80.2
2019-05-01T20:45:17.361Z,79.6
2019-05-01T20:50:13.826Z,80.2
2019-05-01T20:55:11.340Z,80
2019-05-01T21:00:16.698Z,79.7
2019-05-01T21:05:10.963Z,79.9
2019-05-01T21:10:23.551Z,79
2019-05-01T21:15:10.944Z,79.8
2019-05-01T21:20:11.152Z,79.2
2019-05-01T21:25:11.469Z,78.7
2019-05-01T21:30:11.075Z,79.9
2019-05-01T21:35:11.014Z,80.6
2019-05-01T21:40:12.890Z,81
2019-05-01T21:45:12.708Z,81.9
2019-05-01T21:50:13.180Z,82.2
2019-05-01T21:55:11.348Z,82.6
2019-05-01T22:00:11.323Z,82.8
2019-05-01T22:05:11.355Z,83
2019-05-01T22:10:11.317Z,82.9
2019-05-01T22:15:12.334Z,83
2019-05-01T22:20:11.094Z,83
2019-05-01T22:25:11.277Z,83.3
2019-05-01T22:30:12.683Z,83.6
2019-05-01T22:35:10.963Z,83.9
2019-05-01T22:40:11.141Z,84
2019-05-01T22:45:11.224Z,83.8
2019-05-01T22:50:11.331Z,84.2
2019-05-01T22:55:10.939Z,84.5
2019-05-01T23:00:11.309Z,84.5
2019-05-01T23:05:11.320Z,84.7
2019-05-01T23:10:11.191Z,85.1
2019-05-01T23:15:11.009Z,85.1
2019-05-01T23:20:11.239Z,85.5
2019-05-01T23:25:11.125Z,85.7
2019-05-01T23:30:11.319Z,85.8
2019-05-01T23:35:11.144Z,86
2019-05-01T23:40:15.420Z,86.3
2019-05-01T23:45:10.982Z,86.6
2019-05-01T23:50:10.896Z,86.8
2019-05-01T23:55:10.995Z,86.8
